Time;durP1;ratioP1;P1;durP2;ratioP2;P2;SDS_P1;SDS_P2;PMS_P1;PMS_P2;Temp;Humidity;BMP_temperature;BMP_pressure;BME280_temperature;BME280_humidity;BME280_pressure;Samples;Min_cycle;Max_cycle;Signal;HPM_P1;HPM_P2
2021/04/23 00:01:57;;;;;;;2.53;1.40;;;;;;;;;;5003192;28;20071;-75
2021/04/23 00:04:22;;;;;;;2.50;1.30;;;;;;;;;;5019555;28;20041;-75
2021/04/23 00:06:50;;;;;;;3.30;1.20;;;;;;;;;;5019419;28;20033;-75
2021/04/23 00:09:17;;;;;;;2.95;1.40;;;;;;;;;;5036278;28;20033;-75
2021/04/23 00:11:49;;;;;;;2.80;1.30;;;;;;;;;;5052453;28;20553;-75
2021/04/23 00:14:16;;;;;;;2.15;1.20;;;;;;;;;;5035436;28;20510;-75
2021/04/23 00:16:42;;;;;;;3.30;1.23;;;;;;;;;;5052744;28;20427;-75
2021/04/23 00:19:08;;;;;;;3.30;1.60;;;;;;;;;;5052345;28;20032;-75
2021/04/23 00:21:34;;;;;;;;;;;;;;;;;;5052656;28;20033;-75
2021/04/23 00:23:59;;;;;;;2.78;1.30;;;;;;;;;;5035948;28;19913;-75
2021/04/23 00:26:24;;;;;;;3.40;1.43;;;;;;;;;;5002869;28;20029;-75
2021/04/23 00:28:50;;;;;;;2.70;1.30;;;;;;;;;;5035683;28;20044;-75
2021/04/23 00:31:15;;;;;;;3.67;1.30;;;;;;;;;;5019273;28;20509;-75
2021/04/23 00:33:40;;;;;;;3.43;1.40;;;;;;;;;;5002738;28;20187;-75
2021/04/23 00:36:07;;;;;;;2.40;1.17;;;;;;;;;;5002782;28;20060;-75
2021/04/23 00:38:32;;;;;;;2.60;1.33;;;;;;;;;;5019066;28;20025;-75
2021/04/23 00:41:06;;;;;;;2.40;1.17;;;;;;;;;;5035491;28;20076;-75
2021/04/23 00:43:33;;;;;;;3.20;1.33;;;;;;;;;;5035338;28;20587;-75
2021/04/23 00:45:59;;;;;;;2.33;1.20;;;;;;;;;;5019080;28;20048;-75
2021/04/23 00:48:25;;;;;;;2.80;1.30;;;;;;;;;;5002760;28;20131;-75
2021/04/23 00:50:55;;;;;;;4.03;1.40;;;;;;;;;;5002564;28;20028;-75
2021/04/23 00:53:25;;;;;;;2.97;1.30;;;;;;;;;;5002684;28;20033;-75
2021/04/23 00:55:51;;;;;;;2.08;1.23;;;;;;;;;;5002324;28;20115;-75
2021/04/23 00:58:18;;;;;;;2.58;1.30;;;;;;;;;;5018880;28;20539;-75
2021/04/23 01:00:51;;;;;;;3.03;1.23;;;;;;;;;;5051614;28;20039;-75
2021/04/23 01:03:17;;;;;;;3.20;1.25;;;;;;;;;;5034257;28;20052;-75
2021/04/23 01:05:42;;;;;;;3.08;1.30;;;;;;;;;;5018801;28;20087;-75
2021/04/23 01:08:08;;;;;;;3.23;1.30;;;;;;;;;;5018826;28;20049;-75
2021/04/23 01:10:33;;;;;;;3.03;1.17;;;;;;;;;;5018810;28;20476;-75
2021/04/23 01:12:59;;;;;;;2.93;1.20;;;;;;;;;;5018789;28;20033;-75
2021/04/23 01:15:24;;;;;;;1.83;1.07;;;;;;;;;;5018471;28;20115;-75
2021/04/23 01:17:50;;;;;;;3.43;1.50;;;;;;;;;;5035167;28;20483;-75
2021/04/23 01:20:15;;;;;;;2.73;1.30;;;;;;;;;;5051461;28;20550;-75
2021/04/23 01:22:41;;;;;;;2.50;1.23;;;;;;;;;;5018644;28;20044;-75
2021/04/23 01:25:07;;;;;;;3.13;1.60;;;;;;;;;;5002168;28;20079;-75
2021/04/23 01:27:32;;;;;;;3.53;1.30;;;;;;;;;;5018629;28;20119;-75
2021/04/23 01:29:58;;;;;;;2.70;1.37;;;;;;;;;;5002121;28;20029;-75
2021/04/23 01:32:23;;;;;;;2.00;1.10;;;;;;;;;;5002213;28;20613;-76
2021/04/23 01:34:49;;;;;;;3.53;1.30;;;;;;;;;;5018637;28;20455;-75
2021/04/23 01:37:14;;;;;;;2.77;1.30;;;;;;;;;;5034723;28;20040;-75
2021/04/23 01:39:40;;;;;;;4.07;1.27;;;;;;;;;;5018487;28;20060;-75
2021/04/23 01:42:06;;;;;;;2.97;1.20;;;;;;;;;;5001780;28;20482;-75
2021/04/23 01:44:32;;;;;;;3.05;1.17;;;;;;;;;;5018464;28;20056;-75
2021/04/23 01:46:58;;;;;;;2.57;1.20;;;;;;;;;;5051430;28;20033;-75
2021/04/23 01:49:23;;;;;;;3.28;1.25;;;;;;;;;;5034823;28;20029;-75
2021/04/23 01:51:54;;;;;;;2.53;1.20;;;;;;;;;;5034916;28;20514;-75
2021/04/23 01:54:20;;;;;;;2.22;1.17;;;;;;;;;;5034826;28;20036;-75
2021/04/23 01:56:45;;;;;;;2.30;1.20;;;;;;;;;;5018784;28;20033;-75
2021/04/23 01:59:10;;;;;;;2.17;1.10;;;;;;;;;;5001820;28;20049;-75
2021/04/23 02:01:36;;;;;;;4.30;1.10;;;;;;;;;;5034564;28;20111;-75
2021/04/23 02:04:06;;;;;;;1.73;0.90;;;;;;;;;;5018199;28;20063;-75
2021/04/23 02:06:31;;;;;;;3.00;1.20;;;;;;;;;;4998535;28;20037;-75
2021/04/23 02:08:56;;;;;;;3.17;1.30;;;;;;;;;;5001626;28;20151;-75
2021/04/23 02:11:22;;;;;;;2.93;1.20;;;;;;;;;;5034606;28;20500;-75
2021/04/23 02:13:48;;;;;;;3.00;1.10;;;;;;;;;;5020432;28;20064;-75
2021/04/23 02:16:15;;;;;;;3.35;1.38;;;;;;;;;;5038193;28;20086;-75
2021/04/23 02:18:40;;;;;;;;;;;;;;;;;;5038505;28;20037;-75
2021/04/23 02:21:06;;;;;;;2.97;1.30;;;;;;;;;;5038135;28;20007;-75
2021/04/23 02:23:31;;;;;;;3.27;1.33;;;;;;;;;;5037929;28;20407;-75
2021/04/23 02:25:56;;;;;;;2.40;1.17;;;;;;;;;;5054566;28;20631;-75
2021/04/23 02:28:22;;;;;;;2.67;1.17;;;;;;;;;;5038012;28;20076;-75
2021/04/23 02:30:51;;;;;;;4.33;1.40;;;;;;;;;;5021569;28;20068;-76
2021/04/23 02:33:17;;;;;;;2.42;1.10;;;;;;;;;;5037928;28;20043;-75
2021/04/23 02:35:43;;;;;;;2.05;1.13;;;;;;;;;;5021458;28;20043;-75
2021/04/23 02:38:09;;;;;;;2.57;1.20;;;;;;;;;;5004946;28;20029;-75
2021/04/23 02:40:34;;;;;;;2.07;1.10;;;;;;;;;;5021359;28;20118;-75
2021/04/23 02:43:03;;;;;;;2.17;1.10;;;;;;;;;;5021571;28;20031;-75
2021/04/23 02:45:30;;;;;;;1.85;0.98;;;;;;;;;;5037868;28;20033;-75
2021/04/23 02:47:56;;;;;;;2.88;1.08;;;;;;;;;;5021073;28;20041;-75
2021/04/23 02:50:24;;;;;;;3.13;1.33;;;;;;;;;;5004607;28;20106;-75
2021/04/23 02:52:50;;;;;;;3.08;1.20;;;;;;;;;;5037164;28;20562;-75
2021/04/23 02:55:15;;;;;;;3.07;1.20;;;;;;;;;;5037386;28;20107;-75
2021/04/23 02:57:40;;;;;;;2.60;1.20;;;;;;;;;;5004532;28;20028;-75
2021/04/23 03:00:14;;;;;;;3.50;1.40;;;;;;;;;;5036688;28;20442;-74
2021/04/23 03:02:39;;;;;;;2.90;1.38;;;;;;;;;;5070932;23;20049;-75
2021/04/23 03:05:05;;;;;;;2.27;1.10;;;;;;;;;;5054656;28;20128;-75
2021/04/23 03:07:30;;;;;;;2.40;1.20;;;;;;;;;;5053965;28;20041;-75
2021/04/23 03:09:56;;;;;;;3.57;1.30;;;;;;;;;;5053418;28;20365;-75
2021/04/23 03:12:21;;;;;;;4.33;1.20;;;;;;;;;;5036860;28;20479;-75
2021/04/23 03:14:46;;;;;;;3.17;0.97;;;;;;;;;;5053784;28;20448;-75
2021/04/23 03:17:12;;;;;;;2.23;1.10;;;;;;;;;;5054637;28;20060;-75
2021/04/23 03:19:37;;;;;;;2.87;1.17;;;;;;;;;;5053514;28;20075;-75
2021/04/23 03:22:02;;;;;;;3.13;1.37;;;;;;;;;;5036723;28;20051;-75
2021/04/23 03:24:28;;;;;;;2.80;1.20;;;;;;;;;;5053499;28;20048;-75
2021/04/23 03:26:53;;;;;;;2.77;1.13;;;;;;;;;;5053342;28;20547;-75
2021/04/23 03:29:18;;;;;;;2.13;0.97;;;;;;;;;;5053120;28;20461;-75
2021/04/23 03:31:44;;;;;;;2.53;1.10;;;;;;;;;;5036838;28;20025;-75
2021/04/23 03:34:09;;;;;;;2.40;1.20;;;;;;;;;;5047042;28;20063;-75
2021/04/23 03:36:34;;;;;;;2.50;1.07;;;;;;;;;;5053345;28;20051;-75
2021/04/23 03:39:00;;;;;;;3.23;1.40;;;;;;;;;;5053073;28;20131;-75
2021/04/23 03:41:29;;;;;;;3.07;1.10;;;;;;;;;;5055047;28;20036;-75
2021/04/23 03:43:55;;;;;;;2.63;1.10;;;;;;;;;;5053707;28;20071;-75
2021/04/23 03:46:20;;;;;;;2.40;1.20;;;;;;;;;;5054016;28;20527;-75
2021/04/23 03:48:46;;;;;;;1.80;0.93;;;;;;;;;;5035118;28;20043;-75
2021/04/23 03:51:12;;;;;;;2.50;1.10;;;;;;;;;;5044134;28;20088;-75
2021/04/23 03:53:37;;;;;;;2.30;1.10;;;;;;;;;;5053018;28;20432;-75
2021/04/23 03:56:03;;;;;;;2.53;1.10;;;;;;;;;;5036003;28;20120;-75
2021/04/23 03:58:30;;;;;;;2.17;1.08;;;;;;;;;;5053527;28;20119;-75
2021/04/23 04:01:03;;;;;;;2.53;1.17;;;;;;;;;;5036013;28;20112;-75
2021/04/23 04:03:29;;;;;;;2.38;1.10;;;;;;;;;;5043431;28;20551;-75
2021/04/23 04:05:55;;;;;;;2.27;1.17;;;;;;;;;;5036197;28;20037;-75
2021/04/23 04:08:20;;;;;;;2.03;1.00;;;;;;;;;;5052340;28;20090;-75
2021/04/23 04:10:46;;;;;;;3.00;1.17;;;;;;;;;;5052722;28;20037;-75
2021/04/23 04:13:11;;;;;;;2.17;1.07;;;;;;;;;;5035908;28;20040;-75
2021/04/23 04:15:37;;;;;;;3.73;1.07;;;;;;;;;;5056977;28;20558;-75
2021/04/23 04:18:02;;;;;;;2.47;1.17;;;;;;;;;;5036001;28;20029;-75
2021/04/23 04:20:29;;;;;;;2.60;1.00;;;;;;;;;;5052396;28;20068;-75
2021/04/23 04:22:55;;;;;;;2.22;1.20;;;;;;;;;;5052564;28;20036;-75
2021/04/23 04:25:27;;;;;;;2.03;0.90;;;;;;;;;;5053528;28;20036;-75
2021/04/23 04:27:53;;;;;;;2.20;1.00;;;;;;;;;;5052429;28;20507;-75
2021/04/23 04:30:19;;;;;;;1.98;1.08;;;;;;;;;;5065539;28;20044;-75
2021/04/23 04:32:45;;;;;;;2.03;0.90;;;;;;;;;;5051737;28;20052;-75
2021/04/23 04:35:10;;;;;;;2.30;1.00;;;;;;;;;;5051882;28;20090;-75
2021/04/23 04:37:36;;;;;;;2.20;1.10;;;;;;;;;;5066059;28;20446;-75
2021/04/23 04:40:02;;;;;;;1.73;0.97;;;;;;;;;;5052297;28;20086;-75
2021/04/23 04:43:06;;;;;;;3.23;1.20;;;;;;;;;;5051937;28;20033;-75
2021/04/23 04:45:32;;;;;;;2.17;1.08;;;;;;;;;;5051316;28;20457;-76
2021/04/23 04:47:57;;;;;;;2.23;1.10;;;;;;;;;;5036222;28;20033;-75
2021/04/23 04:50:34;;;;;;;1.90;1.03;;;;;;;;;;5051812;28;20112;-76
2021/04/23 04:52:59;;;;;;;2.42;1.13;;;;;;;;;;5035535;28;20787;-76
2021/04/23 04:55:29;;;;;;;2.40;1.00;;;;;;;;;;5035391;28;20063;-75
2021/04/23 04:57:55;;;;;;;3.28;1.10;;;;;;;;;;5051942;28;20071;-75
2021/04/23 05:00:21;;;;;;;2.05;1.00;;;;;;;;;;5043069;28;20561;-76
2021/04/23 05:02:47;;;;;;;1.70;0.90;;;;;;;;;;5034803;28;20063;-75
2021/04/23 05:05:12;;;;;;;2.13;0.83;;;;;;;;;;5068463;28;20187;-76
2021/04/23 05:07:38;;;;;;;2.47;1.00;;;;;;;;;;5038670;28;20044;-75
2021/04/23 05:10:04;;;;;;;3.77;1.10;;;;;;;;;;5036018;28;20025;-75
2021/04/23 05:12:29;;;;;;;2.05;1.00;;;;;;;;;;5051604;28;20118;-76
2021/04/23 05:14:55;;;;;;;1.57;0.90;;;;;;;;;;5047969;28;20061;-75
2021/04/23 05:17:20;;;;;;;2.00;0.90;;;;;;;;;;5035165;28;20041;-76
2021/04/23 05:19:45;;;;;;;2.17;0.97;;;;;;;;;;5052910;28;20115;-76
2021/04/23 05:22:11;;;;;;;1.97;1.00;;;;;;;;;;5051366;28;20499;-75
2021/04/23 05:24:36;;;;;;;2.53;1.10;;;;;;;;;;5051752;28;20432;-75
2021/04/23 05:27:01;;;;;;;1.70;0.90;;;;;;;;;;5051220;28;20127;-75
2021/04/23 05:29:27;;;;;;;2.47;0.93;;;;;;;;;;5034547;28;20036;-75
2021/04/23 05:31:52;;;;;;;2.43;1.00;;;;;;;;;;5051538;28;20095;-75
2021/04/23 05:34:18;;;;;;;2.27;0.90;;;;;;;;;;5051524;28;20060;-75
2021/04/23 05:36:45;;;;;;;3.87;0.97;;;;;;;;;;5050908;28;20460;-76
2021/04/23 05:39:11;;;;;;;3.45;0.90;;;;;;;;;;5051163;28;20067;-76
2021/04/23 05:41:36;;;;;;;2.10;1.00;;;;;;;;;;5034898;28;20369;-75
2021/04/23 05:44:02;;;;;;;1.97;1.07;;;;;;;;;;5043715;28;20033;-75
2021/04/23 05:46:27;;;;;;;2.53;1.10;;;;;;;;;;5050978;28;20032;-75
2021/04/23 05:48:53;;;;;;;2.60;1.17;;;;;;;;;;5053696;28;20037;-75
2021/04/23 05:51:18;;;;;;;1.97;1.00;;;;;;;;;;5065003;28;20053;-75
2021/04/23 05:53:43;;;;;;;2.33;1.27;;;;;;;;;;5055346;28;20112;-75
2021/04/23 05:56:09;;;;;;;2.30;1.10;;;;;;;;;;5054816;28;20170;-75
2021/04/23 05:58:34;;;;;;;2.13;0.87;;;;;;;;;;5056028;28;20471;-76
2021/04/23 06:00:59;;;;;;;2.87;1.00;;;;;;;;;;5038542;28;20061;-75
2021/04/23 06:03:25;;;;;;;2.33;1.20;;;;;;;;;;5052006;28;20037;-75
2021/04/23 06:05:50;;;;;;;2.60;1.07;;;;;;;;;;5054859;28;20044;-75
2021/04/23 06:08:15;;;;;;;1.77;1.00;;;;;;;;;;5037817;28;20419;-76
2021/04/23 06:10:42;;;;;;;3.73;1.13;;;;;;;;;;5054900;28;20029;-76
2021/04/23 06:13:07;;;;;;;2.22;1.17;;;;;;;;;;5046361;28;20041;-75
2021/04/23 06:15:33;;;;;;;1.87;1.07;;;;;;;;;;5054792;28;20075;-75
2021/04/23 06:17:58;;;;;;;1.93;1.00;;;;;;;;;;5054580;28;20123;-75
2021/04/23 06:20:26;;;;;;;3.57;1.00;;;;;;;;;;5038024;28;20037;-76
2021/04/23 06:22:51;;;;;;;2.35;1.10;;;;;;;;;;5038385;28;20037;-75
2021/04/23 06:25:17;;;;;;;1.77;0.80;;;;;;;;;;5043420;28;20062;-76
2021/04/23 06:27:43;;;;;;;2.40;0.90;;;;;;;;;;5037638;28;20044;-75
2021/04/23 06:30:11;;;;;;;2.20;1.00;;;;;;;;;;5070919;28;20028;-75
2021/04/23 06:32:38;;;;;;;2.72;1.20;;;;;;;;;;5038162;28;20476;-75
2021/04/23 06:35:04;;;;;;;2.17;1.05;;;;;;;;;;5055455;28;20110;-75
2021/04/23 06:37:30;;;;;;;3.07;1.00;;;;;;;;;;5037948;28;20108;-76
2021/04/23 06:39:55;;;;;;;2.53;1.08;;;;;;;;;;5048988;28;20044;-75
2021/04/23 06:42:20;;;;;;;3.30;1.17;;;;;;;;;;5054279;28;20094;-76
2021/04/23 06:44:46;;;;;;;2.80;1.03;;;;;;;;;;5055396;28;20068;-76
2021/04/23 06:47:11;;;;;;;2.30;1.20;;;;;;;;;;5054754;28;20116;-75
2021/04/23 06:49:36;;;;;;;1.70;0.97;;;;;;;;;;5053862;28;20119;-75
2021/04/23 06:52:02;;;;;;;2.80;1.20;;;;;;;;;;5037543;28;20025;-75
2021/04/23 06:54:27;;;;;;;2.80;1.13;;;;;;;;;;5049034;28;20128;-75
2021/04/23 06:56:52;;;;;;;3.07;1.20;;;;;;;;;;5054084;28;20068;-75
2021/04/23 06:59:18;;;;;;;1.80;0.90;;;;;;;;;;5053697;28;20118;-75
2021/04/23 07:01:43;;;;;;;3.97;1.27;;;;;;;;;;5054649;28;20123;-75
2021/04/23 07:04:09;;;;;;;2.53;0.97;;;;;;;;;;5037547;28;20123;-75
2021/04/23 07:06:39;;;;;;;1.77;1.00;;;;;;;;;;5036948;28;20065;-75
2021/04/23 07:09:05;;;;;;;3.22;1.08;;;;;;;;;;5054466;28;20029;-75
2021/04/23 07:11:30;;;;;;;2.65;1.10;;;;;;;;;;5053674;28;20040;-75
2021/04/23 07:13:55;;;;;;;2.73;1.10;;;;;;;;;;5035736;28;20068;-75
2021/04/23 07:16:21;;;;;;;2.30;1.10;;;;;;;;;;5052603;28;20072;-75
2021/04/23 07:18:46;;;;;;;2.53;1.23;;;;;;;;;;5053787;28;20479;-75
2021/04/23 07:21:11;;;;;;;2.43;1.20;;;;;;;;;;5054710;28;20466;-75
2021/04/23 07:23:37;;;;;;;3.20;1.27;;;;;;;;;;5037040;28;20037;-75
2021/04/23 07:26:02;;;;;;;2.90;1.13;;;;;;;;;;5053436;28;20115;-75
2021/04/23 07:28:27;;;;;;;3.10;1.20;;;;;;;;;;5053534;28;20032;-75
2021/04/23 07:30:53;;;;;;;3.00;1.20;;;;;;;;;;5039269;28;20096;-75
2021/04/23 07:33:18;;;;;;;3.73;1.20;;;;;;;;;;5038998;28;20075;-75
2021/04/23 07:35:44;;;;;;;2.20;1.20;;;;;;;;;;5053220;28;20064;-75
2021/04/23 07:38:10;;;;;;;2.10;0.95;;;;;;;;;;5036616;28;20068;-75
2021/04/23 07:40:35;;;;;;;3.83;1.40;;;;;;;;;;5054325;28;20047;-75
2021/04/23 07:43:01;;;;;;;3.47;1.33;;;;;;;;;;5046275;28;20051;-75
2021/04/23 07:58:54;;;;;;;2.85;1.20;;;;;;;;;;5054610;28;20167;-75
2021/04/23 08:01:19;;;;;;;3.27;1.30;;;;;;;;;;5052838;28;20111;-75
2021/04/23 08:03:44;;;;;;;1.80;1.00;;;;;;;;;;5054281;28;20118;-75
2021/04/23 08:06:10;;;;;;;2.37;1.20;;;;;;;;;;5052946;28;20056;-75
2021/04/23 08:08:35;;;;;;;3.73;1.10;;;;;;;;;;5052832;28;20032;-75
2021/04/23 08:11:00;;;;;;;2.00;1.10;;;;;;;;;;5052240;28;20063;-75
2021/04/23 08:13:26;;;;;;;2.97;1.20;;;;;;;;;;5052693;28;20071;-75
2021/04/23 08:15:51;;;;;;;3.10;1.17;;;;;;;;;;5052609;28;20044;-75
2021/04/23 08:18:17;;;;;;;3.23;1.13;;;;;;;;;;5052750;28;20029;-75
2021/04/23 08:20:42;;;;;;;2.90;1.20;;;;;;;;;;5053700;28;20029;-75
2021/04/23 08:23:08;;;;;;;2.50;1.10;;;;;;;;;;5069093;28;20033;-75
2021/04/23 08:25:33;;;;;;;2.33;1.17;;;;;;;;;;5035778;28;20033;-75
2021/04/23 08:27:58;;;;;;;2.67;1.03;;;;;;;;;;5035824;28;20491;-75
2021/04/23 08:30:25;;;;;;;2.13;1.10;;;;;;;;;;5052354;28;20068;-75
2021/04/23 08:32:51;;;;;;;2.20;1.20;;;;;;;;;;5035792;28;20029;-75
2021/04/23 08:35:16;;;;;;;2.30;1.10;;;;;;;;;;5035719;28;20103;-75
2021/04/23 08:37:41;;;;;;;2.00;1.10;;;;;;;;;;5052245;28;20060;-75
2021/04/23 08:40:08;;;;;;;3.43;1.20;;;;;;;;;;5036098;28;20040;-75
2021/04/23 08:42:33;;;;;;;2.78;1.13;;;;;;;;;;5052077;28;20032;-75
2021/04/23 08:44:59;;;;;;;2.70;1.30;;;;;;;;;;5035502;28;20041;-75
2021/04/23 08:47:24;;;;;;;2.73;1.27;;;;;;;;;;5035624;28;20033;-75
2021/04/23 08:49:50;;;;;;;2.83;1.17;;;;;;;;;;5035529;28;20104;-75
2021/04/23 08:52:15;;;;;;;2.63;1.00;;;;;;;;;;5035774;28;20396;-75
2021/04/23 08:54:40;;;;;;;1.93;0.93;;;;;;;;;;5035345;28;20071;-75
2021/04/23 08:57:06;;;;;;;3.37;1.20;;;;;;;;;;5068542;28;20504;-75
2021/04/23 08:59:31;;;;;;;2.63;1.20;;;;;;;;;;5051894;28;20553;-75
2021/04/23 09:04:24;;;;;;;4.07;1.20;;;;;;;;;;5050765;28;20053;-75
2021/04/23 09:07:00;;;;;;;3.03;1.20;;;;;;;;;;5052991;28;20037;-75
2021/04/23 09:09:28;;;;;;;2.47;1.10;;;;;;;;;;5035304;28;20033;-75
2021/04/23 09:11:53;;;;;;;1.80;1.13;;;;;;;;;;5019107;28;20043;-75
2021/04/23 09:14:21;;;;;;;3.20;1.20;;;;;;;;;;5053077;28;20116;-75
2021/04/23 09:16:52;;;;;;;1.98;1.05;;;;;;;;;;5052874;28;20410;-75
2021/04/23 09:19:31;;;;;;;2.03;1.10;;;;;;;;;;5035920;28;20039;-75
2021/04/23 09:21:58;;;;;;;2.50;1.02;;;;;;;;;;5019090;28;20041;-75
2021/04/23 09:24:24;;;;;;;2.30;1.02;;;;;;;;;;5038869;28;20094;-75
2021/04/23 09:26:51;;;;;;;2.30;1.00;;;;;;;;;;5022812;28;20039;-75
2021/04/23 09:29:32;;;;;;;2.63;1.15;;;;;;;;;;5039343;28;20399;-75
2021/04/23 09:32:30;;;;;;;2.00;1.10;;;;;;;;;;5056912;28;20032;-75
2021/04/23 09:35:03;;;;;;;2.88;1.20;;;;;;;;;;5048661;28;20036;-75
2021/04/23 09:37:40;;;;;;;2.47;1.10;;;;;;;;;;5039448;28;20386;-75
2021/04/23 09:40:15;;;;;;;2.10;1.08;;;;;;;;;;5006255;28;20063;-75
2021/04/23 09:42:57;;;;;;;2.67;1.20;;;;;;;;;;5022624;28;20102;-75
2021/04/23 09:45:27;;;;;;;2.88;1.10;;;;;;;;;;5039253;28;20059;-75
2021/04/23 09:47:53;;;;;;;2.30;1.02;;;;;;;;;;5038827;28;20029;-75
2021/04/23 09:50:18;;;;;;;2.03;1.10;;;;;;;;;;5038820;28;20028;-75
2021/04/23 09:52:51;;;;;;;1.83;1.00;;;;;;;;;;5022541;28;20467;-75
2021/04/23 09:55:18;;;;;;;1.88;0.90;;;;;;;;;;5038975;28;20033;-75
2021/04/23 09:57:48;;;;;;;2.90;1.17;;;;;;;;;;5022288;28;20029;-75
2021/04/23 10:00:14;;;;;;;2.35;1.10;;;;;;;;;;5038616;28;20476;-75
2021/04/23 10:02:39;;;;;;;2.78;1.30;;;;;;;;;;5056316;28;20411;-75
2021/04/23 10:05:05;;;;;;;2.53;1.13;;;;;;;;;;5038851;28;20049;-75
2021/04/23 10:07:32;;;;;;;1.45;1.00;;;;;;;;;;5056557;28;20541;-75
2021/04/23 10:10:04;;;;;;;3.67;1.20;;;;;;;;;;5022137;28;20021;-75
2021/04/23 10:12:32;;;;;;;2.95;0.90;;;;;;;;;;5038410;28;20472;-75
2021/04/23 10:15:12;;;;;;;1.67;0.98;;;;;;;;;;5056023;28;20032;-75
2021/04/23 10:17:38;;;;;;;3.85;1.25;;;;;;;;;;5038730;28;20090;-75
2021/04/23 10:20:05;;;;;;;1.50;0.90;;;;;;;;;;5021934;28;20041;-74
2021/04/23 10:22:30;;;;;;;2.00;1.05;;;;;;;;;;5021696;28;20029;-75
2021/04/23 10:24:55;;;;;;;2.17;0.90;;;;;;;;;;5056021;28;20099;-75
2021/04/23 10:27:21;;;;;;;3.77;1.00;;;;;;;;;;5021605;28;20047;-75
2021/04/23 10:29:48;;;;;;;2.03;1.00;;;;;;;;;;5038167;28;20404;-75
2021/04/23 10:32:13;;;;;;;3.22;1.10;;;;;;;;;;5021771;28;20083;-75
2021/04/23 10:34:40;;;;;;;1.63;1.10;;;;;;;;;;5021077;28;20037;-75
2021/04/23 10:37:06;;;;;;;2.80;1.10;;;;;;;;;;5021466;28;20036;-75
2021/04/23 10:39:35;;;;;;;2.73;1.10;;;;;;;;;;5021416;28;20492;-75
2021/04/23 10:42:02;;;;;;;2.38;1.10;;;;;;;;;;5038047;28;20025;-75
2021/04/23 10:44:49;;;;;;;2.45;1.08;;;;;;;;;;5021794;28;20033;-75
2021/04/23 10:47:34;;;;;;;2.28;1.15;;;;;;;;;;5037808;28;20024;-74
2021/04/23 10:50:13;;;;;;;1.40;0.85;;;;;;;;;;5037780;28;20029;-74
2021/04/23 10:53:04;;;;;;;2.20;0.98;;;;;;;;;;5055387;28;20029;-75
2021/04/23 10:55:36;;;;;;;2.40;1.20;;;;;;;;;;5055280;28;20033;-75
2021/04/23 10:58:01;;;;;;;3.25;1.15;;;;;;;;;;5037760;28;20032;-74
2021/04/23 11:00:35;;;;;;;1.93;0.97;;;;;;;;;;5020948;28;20052;-75
2021/04/23 11:03:31;;;;;;;1.50;0.90;;;;;;;;;;5038126;28;20090;-75
2021/04/23 11:06:06;;;;;;;2.10;0.93;;;;;;;;;;5055102;28;20405;-74
2021/04/23 11:08:36;;;;;;;1.92;0.93;;;;;;;;;;5055378;28;20059;-74
2021/04/23 11:11:01;;;;;;;2.20;1.00;;;;;;;;;;5037610;28;20025;-74
2021/04/23 11:13:27;;;;;;;2.50;1.07;;;;;;;;;;5055071;28;20087;-74
2021/04/23 11:16:17;;;;;;;1.73;0.90;;;;;;;;;;5037279;28;20029;-74
2021/04/23 11:18:44;;;;;;;2.13;1.00;;;;;;;;;;5037149;28;20411;-74
2021/04/23 11:21:31;;;;;;;;;;;;;;;;;;5037687;28;20082;-74
2021/04/23 11:24:11;;;;;;;2.03;1.05;;;;;;;;;;5037197;28;19916;-74
2021/04/23 11:26:52;;;;;;;1.65;0.80;;;;;;;;;;5036850;28;20051;-74
2021/04/23 11:29:17;;;;;;;1.98;0.98;;;;;;;;;;5054702;28;20033;-74
2021/04/23 11:32:20;;;;;;;2.37;1.13;;;;;;;;;;5020482;28;20036;-74
2021/04/23 11:34:48;;;;;;;2.22;1.00;;;;;;;;;;5036829;28;20033;-74
2021/04/23 11:37:19;;;;;;;1.88;1.00;;;;;;;;;;5037250;28;20056;-74
2021/04/23 11:39:46;;;;;;;2.70;1.10;;;;;;;;;;5037048;28;20028;-74
2021/04/23 11:42:15;;;;;;;1.60;0.90;;;;;;;;;;5054334;28;20029;-74
2021/04/23 11:45:03;;;;;;;2.00;0.90;;;;;;;;;;5036417;28;20045;-75
2021/04/23 11:47:39;;;;;;;2.00;0.95;;;;;;;;;;5054035;28;20044;-74
2021/04/23 11:50:13;;;;;;;2.25;0.90;;;;;;;;;;5021404;28;20091;-75
2021/04/23 11:52:40;;;;;;;1.33;0.85;;;;;;;;;;5054375;28;20554;-74
2021/04/23 11:55:14;;;;;;;;;;;;;;;;;;5020582;28;20098;-75
2021/04/23 11:57:40;;;;;;;2.05;0.88;;;;;;;;;;5036594;28;20445;-75
2021/04/23 12:00:06;;;;;;;1.97;0.90;;;;;;;;;;5019876;28;20041;-75
2021/04/23 12:02:57;;;;;;;2.10;1.00;;;;;;;;;;5036145;28;20510;-75
2021/04/23 12:05:24;;;;;;;1.73;1.02;;;;;;;;;;5024216;28;20045;-75
2021/04/23 12:07:51;;;;;;;3.17;1.00;;;;;;;;;;5032717;28;20550;-75
2021/04/23 12:10:17;;;;;;;2.47;1.00;;;;;;;;;;5000222;28;20038;-75
2021/04/23 12:12:46;;;;;;;1.40;0.80;;;;;;;;;;5016298;28;20408;-75
2021/04/23 12:15:23;;;;;;;1.88;1.00;;;;;;;;;;5016553;28;20033;-75
2021/04/23 12:17:48;;;;;;;1.90;0.98;;;;;;;;;;5012418;28;20038;-75
2021/04/23 12:20:25;;;;;;;2.10;0.90;;;;;;;;;;5012535;28;20108;-74
2021/04/23 12:22:51;;;;;;;2.83;1.05;;;;;;;;;;5030125;28;20060;-74
2021/04/23 12:25:27;;;;;;;3.57;0.90;;;;;;;;;;4996004;28;20043;-75
2021/04/23 12:27:52;;;;;;;1.65;0.90;;;;;;;;;;4997583;28;20095;-75
2021/04/23 12:30:30;;;;;;;1.90;0.90;;;;;;;;;;5012498;28;20504;-75
2021/04/23 12:32:56;;;;;;;2.53;0.95;;;;;;;;;;4996384;28;20072;-75
2021/04/23 12:35:38;;;;;;;1.93;0.87;;;;;;;;;;5018553;28;20644;-75
2021/04/23 12:38:07;;;;;;;1.95;0.90;;;;;;;;;;5012427;28;20443;-75
2021/04/23 12:40:42;;;;;;;2.35;0.95;;;;;;;;;;5007527;28;20098;-75
2021/04/23 12:43:19;;;;;;;2.63;0.90;;;;;;;;;;5016545;28;20037;-75
2021/04/23 12:45:49;;;;;;;2.03;0.93;;;;;;;;;;5031854;28;20033;-75
2021/04/23 12:48:15;;;;;;;2.33;1.00;;;;;;;;;;5049577;28;20021;-75
2021/04/23 12:50:41;;;;;;;3.27;1.00;;;;;;;;;;4998283;28;20398;-74
2021/04/23 12:53:07;;;;;;;2.33;1.00;;;;;;;;;;4995368;28;20052;-75
2021/04/23 12:55:32;;;;;;;1.43;0.90;;;;;;;;;;5012072;28;20045;-74
2021/04/23 12:57:58;;;;;;;1.07;0.70;;;;;;;;;;5011780;28;20148;-75
2021/04/23 13:00:23;;;;;;;1.97;0.90;;;;;;;;;;5030469;28;20041;-75
2021/04/23 13:02:49;;;;;;;1.70;0.80;;;;;;;;;;5015157;28;20805;-75
2021/04/23 13:05:17;;;;;;;1.58;0.88;;;;;;;;;;5014825;28;20090;-75
2021/04/23 13:07:42;;;;;;;2.22;0.90;;;;;;;;;;5015505;28;20036;-75
2021/04/23 13:10:09;;;;;;;1.97;1.00;;;;;;;;;;5031438;28;20040;-75
2021/04/23 13:12:36;;;;;;;1.90;0.88;;;;;;;;;;5049325;28;20033;-74
2021/04/23 13:15:03;;;;;;;1.10;0.70;;;;;;;;;;5035086;28;20033;-74
2021/04/23 13:17:38;;;;;;;2.22;0.90;;;;;;;;;;5035127;28;20075;-74
2021/04/23 13:20:15;;;;;;;2.72;0.93;;;;;;;;;;5052831;28;20033;-74
2021/04/23 13:22:44;;;;;;;;;;;;;;;;;;5019207;28;20032;-75
2021/04/23 13:25:10;;;;;;;2.45;0.82;;;;;;;;;;5035115;28;19913;-74
2021/04/23 13:27:35;;;;;;;1.63;0.80;;;;;;;;;;5052825;28;20507;-74
2021/04/23 13:30:01;;;;;;;1.90;0.90;;;;;;;;;;5002224;28;20033;-74
2021/04/23 13:32:28;;;;;;;2.00;0.83;;;;;;;;;;5052881;28;20495;-75
2021/04/23 13:34:54;;;;;;;2.40;0.95;;;;;;;;;;5034997;28;20055;-75
2021/04/23 13:37:33;;;;;;;2.33;0.80;;;;;;;;;;5018907;28;20044;-74
2021/04/23 13:40:08;;;;;;;1.70;1.00;;;;;;;;;;5052739;28;20029;-75
2021/04/23 13:42:33;;;;;;;2.30;1.00;;;;;;;;;;5034794;28;20037;-75
2021/04/23 13:45:10;;;;;;;1.73;0.80;;;;;;;;;;5018514;28;20064;-74
2021/04/23 13:47:37;;;;;;;1.75;0.82;;;;;;;;;;5018532;28;20068;-74
2021/04/23 13:50:14;;;;;;;3.00;0.82;;;;;;;;;;5018692;28;20041;-74
2021/04/23 13:52:44;;;;;;;2.03;0.90;;;;;;;;;;5036089;28;20028;-74
2021/04/23 13:55:10;;;;;;;1.80;0.80;;;;;;;;;;5035004;28;20040;-74
2021/04/23 13:57:36;;;;;;;1.95;1.00;;;;;;;;;;5034804;28;20064;-74
2021/04/23 14:00:01;;;;;;;1.70;0.80;;;;;;;;;;5034714;28;20069;-74
2021/04/23 14:02:27;;;;;;;1.83;0.90;;;;;;;;;;5018195;28;20037;-74
2021/04/23 14:04:52;;;;;;;2.17;0.80;;;;;;;;;;5052477;28;20083;-74
2021/04/23 14:07:19;;;;;;;3.07;1.20;;;;;;;;;;5034707;28;20021;-74
2021/04/23 14:09:44;;;;;;;2.17;0.90;;;;;;;;;;5037461;28;20090;-74
2021/04/23 14:12:20;;;;;;;1.93;0.80;;;;;;;;;;5038595;28;20033;-74
2021/04/23 14:14:46;;;;;;;2.63;1.10;;;;;;;;;;5038358;28;20507;-74
2021/04/23 14:17:12;;;;;;;1.90;0.80;;;;;;;;;;5056108;28;20058;-74
2021/04/23 14:19:40;;;;;;;3.33;0.90;;;;;;;;;;5038500;28;20089;-74
2021/04/23 14:22:06;;;;;;;2.05;0.80;;;;;;;;;;5038392;28;20048;-74
2021/04/23 14:24:32;;;;;;;1.57;0.73;;;;;;;;;;5038699;28;20476;-75
2021/04/23 14:26:57;;;;;;;2.35;0.90;;;;;;;;;;5038191;28;20060;-74
2021/04/23 14:29:23;;;;;;;1.73;0.80;;;;;;;;;;5038329;28;20029;-75
2021/04/23 14:31:49;;;;;;;1.60;0.90;;;;;;;;;;5021688;28;20519;-74
2021/04/23 14:34:14;;;;;;;2.33;0.80;;;;;;;;;;5038117;28;20040;-74
2021/04/23 14:36:40;;;;;;;1.33;0.90;;;;;;;;;;5038024;28;20091;-74
2021/04/23 14:39:07;;;;;;;1.77;0.70;;;;;;;;;;5021541;28;20029;-74
2021/04/23 14:41:32;;;;;;;1.80;0.90;;;;;;;;;;5038028;28;20033;-74
2021/04/23 14:43:58;;;;;;;2.07;0.90;;;;;;;;;;5038042;28;20422;-75
2021/04/23 14:46:23;;;;;;;1.73;0.90;;;;;;;;;;5037869;28;20116;-75
2021/04/23 14:48:49;;;;;;;2.07;0.90;;;;;;;;;;5055624;28;20061;-75
2021/04/23 14:51:14;;;;;;;1.97;0.73;;;;;;;;;;5037751;28;20503;-74
2021/04/23 14:53:39;;;;;;;1.10;0.80;;;;;;;;;;5037709;28;20438;-75
2021/04/23 14:56:05;;;;;;;1.93;0.80;;;;;;;;;;5055311;28;20025;-75
2021/04/23 14:58:31;;;;;;;2.07;0.90;;;;;;;;;;5037784;28;20060;-75
2021/04/23 15:00:57;;;;;;;1.40;0.90;;;;;;;;;;5037526;28;20033;-75
2021/04/23 15:03:22;;;;;;;2.43;1.00;;;;;;;;;;5048979;23;20174;-75
2021/04/23 15:05:47;;;;;;;1.83;0.80;;;;;;;;;;4996184;28;20640;-75